Time;durP1;ratioP1;P1;durP2;ratioP2;P2;SDS_P1;SDS_P2;PMS_P1;PMS_P2;Temp;Humidity;BMP_temperature;BMP_pressure;BME280_temperature;BME280_humidity;BME280_pressure;Samples;Min_cycle;Max_cycle;Signal;HPM_P1;HPM_P2
2022/10/10 00:02:31;;;;;;;21.90;7.23;;;10.90;99.90;;;;;;21059630;28;20051;-77
2022/10/10 00:12:31;;;;;;;15.53;7.17;;;10.90;99.90;;;;;;21065545;28;20067;-77
2022/10/10 00:22:32;;;;;;;15.23;7.67;;;10.90;99.90;;;;;;21076771;28;20035;-77
2022/10/10 00:32:34;;;;;;;13.13;6.77;;;10.80;99.90;;;;;;21075367;28;20048;-77
2022/10/10 00:42:34;;;;;;;;;;;10.90;99.90;;;;;;21089058;28;20146;-77
2022/10/10 00:52:35;;;;;;;17.37;7.57;;;10.90;99.90;;;;;;21089855;28;20428;-77
2022/10/10 01:02:36;;;;;;;16.43;7.43;;;10.90;99.90;;;;;;21088998;28;20039;-77
2022/10/10 01:13:07;;;;;;;13.52;7.80;;;10.90;99.90;;;;;;21087977;28;20050;-77
2022/10/10 01:23:23;;;;;;;14.32;7.32;;;10.80;99.90;;;;;;21073622;28;20036;-77
2022/10/10 01:33:49;;;;;;;15.13;7.60;;;10.80;99.90;;;;;;21086594;28;20516;-77
2022/10/10 01:44:57;;;;;;;;;;;;;;;;;;;;;
2022/10/10 03:04:16;;;;;;;16.63;7.47;;;10.80;99.90;;;;;;21103691;22;20413;-83
2022/10/10 03:14:16;;;;;;;;;;;10.80;99.90;;;;;;21047559;28;20048;-84
2022/10/10 03:24:17;;;;;;;15.03;8.27;;;10.70;99.90;;;;;;21065559;28;19916;-83
2022/10/10 03:34:18;;;;;;;14.40;9.07;;;10.60;99.90;;;;;;21065325;28;20040;-85
2022/10/10 03:44:19;;;;;;;17.40;8.83;;;10.60;99.90;;;;;;21049838;28;20044;-84
2022/10/10 03:54:19;;;;;;;14.60;10.00;;;10.60;99.90;;;;;;21046727;28;20042;-84
2022/10/10 04:04:20;;;;;;;24.60;11.87;;;10.60;99.90;;;;;;21038677;28;20036;-85
2022/10/10 04:14:21;;;;;;;19.07;10.27;;;10.60;99.90;;;;;;21053306;28;20048;-82
2022/10/10 04:24:22;;;;;;;19.90;12.23;;;10.70;99.90;;;;;;21078354;28;20043;-83
2022/10/10 04:34:23;;;;;;;22.13;12.20;;;10.80;99.90;;;;;;21063392;28;20048;-84
2022/10/10 04:44:24;;;;;;;24.07;11.33;;;10.80;99.90;;;;;;21062784;28;20052;-83
2022/10/10 04:54:25;;;;;;;27.87;13.30;;;10.90;99.90;;;;;;21080279;28;20055;-83
2022/10/10 05:04:25;;;;;;;28.13;12.73;;;10.90;99.90;;;;;;21098077;28;20068;-86
2022/10/10 05:14:26;;;;;;;28.63;11.43;;;10.90;99.90;;;;;;21076584;28;20066;-83
2022/10/10 05:24:27;;;;;;;26.17;11.10;;;10.90;99.90;;;;;;21059180;28;20040;-83
2022/10/10 05:34:28;;;;;;;19.30;10.63;;;10.90;99.90;;;;;;21061280;28;20267;-83
2022/10/10 05:44:29;;;;;;;19.53;10.37;;;10.90;99.90;;;;;;21076564;28;20431;-83
2022/10/10 05:54:29;;;;;;;22.97;9.73;;;10.80;99.90;;;;;;21086272;28;20040;-84
2022/10/10 06:04:30;;;;;;;20.73;10.40;;;10.80;99.90;;;;;;21045619;28;20096;-83
2022/10/10 06:14:31;;;;;;;28.05;11.13;;;10.80;99.90;;;;;;21056890;22;20048;-80
2022/10/10 06:24:32;;;;;;;15.63;9.97;;;10.80;99.90;;;;;;20989125;28;20040;-81
2022/10/10 06:34:33;;;;;;;16.00;8.33;;;10.90;99.90;;;;;;21006070;28;20040;-81
2022/10/10 06:44:34;;;;;;;19.47;9.87;;;10.90;99.90;;;;;;20988033;28;20041;-82
2022/10/10 06:54:35;;;;;;;23.90;11.43;;;10.90;99.90;;;;;;20987847;28;20051;-82
2022/10/10 07:04:36;;;;;;;34.57;13.70;;;11.10;99.90;;;;;;20983855;28;20037;-81
2022/10/10 07:14:36;;;;;;;23.53;12.33;;;11.30;99.90;;;;;;20967447;28;20097;-80
2022/10/10 07:24:37;;;;;;;28.50;13.83;;;11.40;99.90;;;;;;20984915;28;20529;-80
2022/10/10 07:34:38;;;;;;;25.37;13.77;;;11.50;99.90;;;;;;20968252;28;20036;-81
2022/10/10 07:44:39;;;;;;;26.27;13.97;;;11.70;99.90;;;;;;20989739;28;20554;-80
2022/10/10 07:54:40;;;;;;;32.47;14.33;;;12.00;99.90;;;;;;20931621;28;20044;-80
2022/10/10 08:04:40;;;;;;;28.33;13.03;;;12.20;99.90;;;;;;20934424;28;20072;-78
2022/10/10 08:14:41;;;;;;;24.03;14.23;;;12.50;99.90;;;;;;20903807;28;20041;-80
2022/10/10 08:24:42;;;;;;;30.07;14.73;;;12.70;99.90;;;;;;20916832;28;20045;-79
2022/10/10 08:34:43;;;;;;;26.93;15.50;;;13.00;99.90;;;;;;20914681;28;20124;-80
2022/10/10 08:44:55;;;;;;;35.90;15.37;;;13.20;99.90;;;;;;20917799;28;20037;-80
2022/10/10 08:55:00;;;;;;;37.58;17.63;;;13.20;99.90;;;;;;20898839;28;20033;-81
2022/10/10 09:05:01;;;;;;;29.92;15.55;;;13.60;99.90;;;;;;20925203;28;20041;-79
2022/10/10 09:15:20;;;;;;;23.03;13.30;;;13.90;99.90;;;;;;20906711;28;20045;-81
2022/10/10 09:25:26;;;;;;;23.58;14.20;;;14.10;99.90;;;;;;20908373;28;20044;-81
2022/10/10 09:35:34;;;;;;;26.60;13.82;;;14.30;99.90;;;;;;20926227;28;20501;-81
2022/10/10 09:45:41;;;;;;;26.30;13.07;;;14.40;99.90;;;;;;20922281;28;20128;-81
2022/10/10 09:55:44;;;;;;;24.98;12.73;;;14.90;99.90;;;;;;20921966;28;20075;-81
2022/10/10 10:05:57;;;;;;;27.83;11.98;;;15.20;99.90;;;;;;20904189;28;20041;-81
2022/10/10 10:16:04;;;;;;;20.27;11.80;;;15.60;99.90;;;;;;20906423;28;20040;-81
2022/10/10 10:26:17;;;;;;;20.40;11.13;;;16.30;99.90;;;;;;20923835;28;20056;-81
2022/10/10 10:36:39;;;;;;;20.38;9.45;;;16.70;99.90;;;;;;20906033;28;20132;-82
2022/10/10 10:46:57;;;;;;;14.70;8.60;;;18.20;99.90;;;;;;20926188;28;20448;-83
2022/10/10 10:57:14;;;;;;;13.38;7.47;;;20.20;99.90;;;;;;20932141;28;20052;-83
2022/10/10 11:07:27;;;;;;;19.30;8.73;;;20.60;99.90;;;;;;20909941;28;20176;-82
2022/10/10 11:17:39;;;;;;;14.23;6.63;;;20.80;99.90;;;;;;20907478;28;20099;-83
2022/10/10 11:27:47;;;;;;;13.40;6.93;;;21.00;99.90;;;;;;20911775;28;20044;-81
2022/10/10 11:37:57;;;;;;;13.40;6.43;;;22.50;99.90;;;;;;20955781;28;20111;-79
2022/10/10 11:48:27;;;;;;;10.60;5.75;;;23.30;99.90;;;;;;20944992;28;20071;-82
2022/10/10 11:58:40;;;;;;;9.35;6.10;;;23.90;99.90;;;;;;20908335;28;20507;-80
2022/10/10 12:08:57;;;;;;;9.45;5.10;;;21.60;99.90;;;;;;20886644;28;20033;-81
2022/10/10 12:19:07;;;;;;;14.43;5.90;;;23.80;99.90;;;;;;21078949;23;20059;-79
2022/10/10 12:29:09;;;;;;;10.33;4.90;;;24.30;99.90;;;;;;21155611;28;20097;-78
2022/10/10 12:39:10;;;;;;;9.02;4.32;;;24.00;99.90;;;;;;21191054;28;20078;-77
2022/10/10 12:49:16;;;;;;;;;;;24.10;99.90;;;;;;21172873;28;20036;-77
2022/10/10 12:59:23;;;;;;;9.55;2.25;;;23.90;99.90;;;;;;21177373;28;19911;-77
2022/10/10 13:09:28;;;;;;;6.35;3.65;;;24.10;99.90;;;;;;21182053;28;20043;-77
2022/10/10 13:19:29;;;;;;;3.05;2.30;;;23.90;99.90;;;;;;21234854;27;20042;-78
2022/10/10 13:29:33;;;;;;;6.63;2.17;;;24.60;99.90;;;;;;21266945;27;20063;-77
2022/10/10 13:39:36;;;;;;;5.13;2.17;;;25.30;99.90;;;;;;21256429;27;20285;-77
2022/10/10 13:49:54;;;;;;;7.32;2.08;;;26.20;99.90;;;;;;21252545;27;20106;-77
2022/10/10 14:00:05;;;;;;;11.50;2.30;;;25.30;99.90;;;;;;21234354;27;20125;-77
2022/10/10 14:10:07;;;;;;;6.07;2.20;;;25.00;99.90;;;;;;21252733;27;20042;-78
2022/10/10 14:20:12;;;;;;;4.60;2.05;;;24.50;99.90;;;;;;21220356;27;20508;-78
2022/10/10 14:30:13;;;;;;;13.32;2.47;;;24.80;99.90;;;;;;21258891;27;20039;-78
2022/10/10 14:40:20;;;;;;;6.50;1.98;;;25.20;99.90;;;;;;21254291;27;20616;-78
2022/10/10 14:50:25;;;;;;;7.70;2.40;;;25.20;99.90;;;;;;21235887;27;20042;-78
2022/10/10 15:00:26;;;;;;;6.28;1.95;;;25.70;99.90;;;;;;21268119;27;20565;-79
2022/10/10 15:10:27;;;;;;;12.68;1.73;;;25.20;99.90;;;;;;21264781;27;20042;-79
2022/10/10 15:20:31;;;;;;;7.05;1.88;;;25.10;99.90;;;;;;21263706;27;20068;-78
2022/10/10 15:30:32;;;;;;;5.93;2.13;;;24.80;99.90;;;;;;21253167;27;20031;-78
2022/10/10 15:40:33;;;;;;;8.93;2.35;;;24.20;99.90;;;;;;21263991;27;20035;-78
2022/10/10 15:50:38;;;;;;;;;;;23.60;99.90;;;;;;21246841;27;20505;-77
2022/10/10 16:00:40;;;;;;;7.97;2.38;;;22.30;99.90;;;;;;21221511;27;20418;-77
2022/10/10 16:10:42;;;;;;;7.93;2.20;;;21.90;99.90;;;;;;21248809;27;20159;-77
2022/10/10 16:20:43;;;;;;;12.30;3.15;;;21.50;99.90;;;;;;21258267;27;20043;-77
2022/10/10 16:30:44;;;;;;;20.73;2.40;;;20.50;99.90;;;;;;21258395;27;20131;-76
2022/10/10 16:40:45;;;;;;;10.30;2.90;;;19.30;99.90;;;;;;21239217;27;20437;-76
2022/10/10 16:50:46;;;;;;;9.53;3.17;;;18.30;99.90;;;;;;21256689;27;20097;-76
2022/10/10 17:00:46;;;;;;;9.17;4.50;;;17.50;99.90;;;;;;21256163;27;20035;-77
2022/10/10 17:10:47;;;;;;;9.60;3.53;;;17.00;99.90;;;;;;21255285;27;20035;-76
2022/10/10 17:20:48;;;;;;;15.10;3.30;;;16.40;99.90;;;;;;21253426;27;20035;-75
2022/10/10 17:30:49;;;;;;;7.70;2.93;;;16.30;99.90;;;;;;21233332;27;20489;-76
2022/10/10 17:40:58;;;;;;;11.55;3.45;;;16.10;99.90;;;;;;21250673;27;20074;-77
2022/10/10 17:50:59;;;;;;;11.77;4.65;;;15.80;99.90;;;;;;21248205;27;20037;-76
2022/10/10 18:01:01;;;;;;;7.93;4.07;;;15.50;99.90;;;;;;21248480;27;20110;-74
2022/10/10 18:11:03;;;;;;;8.82;4.28;;;15.30;99.90;;;;;;21246492;27;20054;-74
2022/10/10 18:21:05;;;;;;;16.33;4.80;;;15.10;99.90;;;;;;21078227;22;20119;-74
2022/10/10 18:31:08;;;;;;;10.68;5.35;;;14.90;99.90;;;;;;20978386;28;20036;-74
2022/10/10 18:41:12;;;;;;;12.65;5.47;;;14.60;99.90;;;;;;20994309;28;20037;-74
2022/10/10 18:51:18;;;;;;;10.90;4.95;;;14.60;99.90;;;;;;20994289;28;20423;-74
2022/10/10 19:01:19;;;;;;;9.63;4.65;;;14.60;99.90;;;;;;20975285;28;20044;-74
2022/10/10 19:11:28;;;;;;;10.35;4.65;;;14.50;99.90;;;;;;20990634;28;20040;-74
2022/10/10 19:21:32;;;;;;;10.88;4.72;;;14.10;99.90;;;;;;20991870;28;20469;-75
2022/10/10 19:31:35;;;;;;;13.57;4.18;;;14.30;99.90;;;;;;21026756;28;20044;-74
2022/10/10 19:41:36;;;;;;;10.80;5.55;;;14.30;99.90;;;;;;21036673;28;20047;-74
2022/10/10 19:51:37;;;;;;;8.13;4.90;;;14.30;99.90;;;;;;20990468;28;20629;-75
2022/10/10 20:01:38;;;;;;;7.47;4.53;;;14.10;99.90;;;;;;20972905;28;20093;-74
2022/10/10 20:11:39;;;;;;;12.83;5.37;;;14.10;99.90;;;;;;20990820;28;20068;-73
2022/10/10 20:21:40;;;;;;;12.60;5.23;;;14.10;99.90;;;;;;20990221;28;20036;-75
2022/10/10 20:31:40;;;;;;;15.33;6.20;;;13.90;99.90;;;;;;20988870;28;20047;-74
2022/10/10 20:41:41;;;;;;;9.50;4.80;;;13.80;99.90;;;;;;20988420;28;20032;-74
2022/10/10 20:51:47;;;;;;;15.57;6.83;;;13.90;99.90;;;;;;20989113;28;20039;-74
2022/10/10 21:01:48;;;;;;;12.50;6.03;;;14.10;99.90;;;;;;20985051;28;20044;-74
2022/10/10 21:11:50;;;;;;;14.97;5.33;;;14.20;99.90;;;;;;21002397;28;20107;-74
2022/10/10 21:21:50;;;;;;;18.23;8.32;;;13.90;99.90;;;;;;21002631;28;20406;-74
2022/10/10 21:31:51;;;;;;;15.60;6.83;;;13.90;99.90;;;;;;20983293;28;20040;-74
2022/10/10 21:41:52;;;;;;;14.57;5.17;;;14.00;99.90;;;;;;21000371;28;20086;-74
2022/10/10 21:51:53;;;;;;;17.60;5.50;;;14.00;99.90;;;;;;20999645;28;20047;-74
2022/10/10 22:01:53;;;;;;;18.43;7.03;;;14.00;99.90;;;;;;20998751;28;20039;-74
2022/10/10 22:11:54;;;;;;;16.93;7.10;;;14.20;99.90;;;;;;20997998;28;20040;-74
2022/10/10 22:21:55;;;;;;;16.30;6.43;;;14.10;99.90;;;;;;20996989;28;20062;-75
2022/10/10 22:31:56;;;;;;;15.93;5.47;;;14.10;99.90;;;;;;21006523;28;20032;-77
2022/10/10 22:41:56;;;;;;;11.93;5.97;;;14.50;99.90;;;;;;21000791;28;20037;-75
2022/10/10 22:51:57;;;;;;;15.13;5.37;;;14.40;99.90;;;;;;20994591;28;20055;-75
2022/10/10 23:01:58;;;;;;;19.50;6.43;;;14.30;99.90;;;;;;20993750;28;20036;-75
2022/10/10 23:11:59;;;;;;;12.10;6.00;;;13.80;99.90;;;;;;20993315;28;20029;-75
2022/10/10 23:22:00;;;;;;;15.47;7.70;;;13.60;99.90;;;;;;20974331;28;20155;-75
2022/10/10 23:32:00;;;;;;;15.30;6.87;;;13.50;99.90;;;;;;20991871;28;20036;-75
2022/10/10 23:42:01;;;;;;;22.10;7.77;;;13.60;99.90;;;;;;20991247;28;20094;-75
2022/10/10 23:52:02;;;;;;;14.40;7.37;;;13.30;99.90;;;;;;20991179;28;20037;-75
